Time;durP1;ratioP1;P1;durP2;ratioP2;P2;SDS_P1;SDS_P2;PMS_P1;PMS_P2;Temp;Humidity;BMP_temperature;BMP_pressure;BME280_temperature;BME280_humidity;BME280_pressure;Samples;Min_cycle;Max_cycle;Signal;HPM_P1;HPM_P2
2023/06/26 00:00:41;;;;;;;12.48;8.50;;;20.70;99.90;;;;;;5076525;28;20561;-77
2023/06/26 00:03:07;;;;;;;13.43;8.50;;;20.70;99.90;;;;;;5058202;28;20206;-76
2023/06/26 00:05:34;;;;;;;12.70;8.55;;;20.70;99.90;;;;;;5076636;28;20173;-77
2023/06/26 00:08:00;;;;;;;10.02;8.02;;;20.60;99.90;;;;;;5058264;28;20664;-76
2023/06/26 00:10:27;;;;;;;12.00;8.63;;;20.50;99.90;;;;;;5058454;28;20201;-77
2023/06/26 00:12:53;;;;;;;12.87;8.87;;;20.50;99.90;;;;;;5025636;28;1449688;-77
2023/06/26 00:15:19;;;;;;;15.27;9.25;;;20.50;99.90;;;;;;5077043;28;20207;-77
2023/06/26 00:17:45;;;;;;;12.02;8.55;;;20.40;99.90;;;;;;5058773;28;20177;-76
2023/06/26 00:20:11;;;;;;;13.93;7.88;;;20.30;99.90;;;;;;5059064;28;20183;-76
2023/06/26 00:22:40;;;;;;;12.30;7.45;;;20.20;99.90;;;;;;5076720;28;20201;-77
2023/06/26 00:25:06;;;;;;;13.77;7.97;;;20.10;99.90;;;;;;5077537;28;20170;-77
2023/06/26 00:27:32;;;;;;;11.35;8.07;;;20.00;99.90;;;;;;5058750;28;20201;-77
2023/06/26 00:29:58;;;;;;;10.13;8.10;;;19.90;99.90;;;;;;5059199;28;20699;-77
2023/06/26 00:32:24;;;;;;;9.90;7.95;;;19.80;99.90;;;;;;5078069;28;20229;-76
2023/06/26 00:34:50;;;;;;;9.82;7.75;;;19.70;99.90;;;;;;5059700;28;20185;-76
2023/06/26 00:37:15;;;;;;;9.13;7.80;;;19.60;99.90;;;;;;5059478;28;20189;-76
2023/06/26 00:39:41;;;;;;;11.23;7.88;;;19.50;99.90;;;;;;5077124;28;20170;-77
2023/06/26 00:42:07;;;;;;;9.00;7.70;;;19.50;99.90;;;;;;5076973;28;20700;-77
2023/06/26 00:44:33;;;;;;;9.95;7.68;;;19.50;99.90;;;;;;5059088;28;20207;-77
2023/06/26 00:46:59;;;;;;;9.50;7.63;;;19.50;99.90;;;;;;5058748;28;20181;-77
2023/06/26 00:49:27;;;;;;;11.93;7.85;;;19.50;99.90;;;;;;5079528;28;20173;-76
2023/06/26 00:51:53;;;;;;;11.27;8.38;;;19.50;99.90;;;;;;5077703;28;20251;-77
2023/06/26 00:54:22;;;;;;;11.95;7.70;;;19.40;99.90;;;;;;5076700;28;20184;-77
2023/06/26 00:56:48;;;;;;;11.30;7.70;;;19.40;99.90;;;;;;5076534;28;20177;-77
2023/06/26 00:59:14;;;;;;;11.05;8.35;;;19.50;99.90;;;;;;5058903;28;20157;-77
2023/06/26 01:01:40;;;;;;;10.88;8.02;;;19.50;99.90;;;;;;5076720;28;20210;-77
2023/06/26 01:04:06;;;;;;;10.32;7.55;;;19.50;99.90;;;;;;5058575;28;20177;-77
2023/06/26 01:06:36;;;;;;;13.20;8.27;;;19.60;99.90;;;;;;5075536;28;20170;-77
2023/06/26 01:09:02;;;;;;;10.02;8.00;;;19.60;99.90;;;;;;5077461;28;20234;-76
2023/06/26 01:11:28;;;;;;;11.15;7.63;;;19.60;99.90;;;;;;5058697;28;20305;-77
2023/06/26 01:13:56;;;;;;;11.48;8.73;;;19.50;99.90;;;;;;5075728;28;20228;-77
2023/06/26 01:16:26;;;;;;;10.50;7.35;;;19.50;99.90;;;;;;5058118;28;20204;-77
2023/06/26 01:18:53;;;;;;;9.85;8.27;;;19.40;99.90;;;;;;5057975;28;20195;-76
2023/06/26 01:21:18;;;;;;;8.32;7.30;;;19.40;99.90;;;;;;5057625;28;20312;-76
2023/06/26 01:24:10;;;;;;;15.43;8.25;;;19.40;99.90;;;;;;5057574;28;20253;-76
2023/06/26 01:26:36;;;;;;;9.98;8.10;;;19.30;99.90;;;;;;5075851;28;20199;-76
2023/06/26 01:29:08;;;;;;;11.00;7.45;;;19.30;99.90;;;;;;5057765;28;20177;-76
2023/06/26 01:31:35;;;;;;;9.02;7.25;;;19.20;99.90;;;;;;5075754;28;20196;-76
2023/06/26 01:34:01;;;;;;;12.65;7.55;;;19.20;99.90;;;;;;5075658;28;20636;-76
2023/06/26 01:36:27;;;;;;;11.18;7.82;;;19.20;99.90;;;;;;5075557;28;20178;-76
2023/06/26 01:38:54;;;;;;;10.98;8.18;;;19.20;99.90;;;;;;5075566;28;20542;-76
2023/06/26 01:41:20;;;;;;;12.60;8.57;;;19.20;99.90;;;;;;5057247;28;20198;-76
2023/06/26 01:44:07;;;;;;;16.10;8.63;;;19.20;99.90;;;;;;5057523;28;20227;-76
2023/06/26 01:47:01;;;;;;;23.20;8.88;;;19.20;99.90;;;;;;5057484;28;20162;-76
2023/06/26 01:49:39;;;;;;;17.92;8.60;;;19.20;99.90;;;;;;5057321;28;20178;-76
2023/06/26 01:52:31;;;;;;;12.55;8.05;;;19.20;99.90;;;;;;5057557;28;20223;-76
2023/06/26 01:55:10;;;;;;;16.15;8.40;;;19.20;99.90;;;;;;5058863;28;20174;-75
2023/06/26 01:57:38;;;;;;;14.48;8.60;;;19.10;99.90;;;;;;5056891;28;20173;-77
2023/06/26 02:00:06;;;;;;;17.73;8.85;;;19.10;99.90;;;;;;5057133;28;20316;-77
2023/06/26 02:02:31;;;;;;;12.73;7.95;;;19.10;99.90;;;;;;5057525;28;20208;-77
2023/06/26 02:04:57;;;;;;;13.57;7.80;;;19.00;99.90;;;;;;5075341;28;20173;-77
2023/06/26 02:07:23;;;;;;;13.23;7.78;;;18.90;99.90;;;;;;5057127;28;20202;-76
2023/06/26 02:09:49;;;;;;;15.82;7.35;;;18.90;99.90;;;;;;5056866;28;20224;-77
2023/06/26 02:12:14;;;;;;;10.52;7.75;;;18.90;99.90;;;;;;5074945;28;20197;-77
2023/06/26 02:14:40;;;;;;;12.25;7.97;;;18.80;99.90;;;;;;5074727;28;20185;-77
2023/06/26 02:17:06;;;;;;;11.27;7.47;;;18.60;99.90;;;;;;5056928;28;20190;-77
2023/06/26 02:19:32;;;;;;;9.43;7.78;;;18.60;99.90;;;;;;5056923;28;20182;-77
2023/06/26 02:21:58;;;;;;;12.48;8.07;;;18.50;99.90;;;;;;5056809;28;20206;-77
2023/06/26 02:24:23;;;;;;;15.00;8.85;;;18.60;99.90;;;;;;5074797;28;20170;-77
2023/06/26 02:26:49;;;;;;;13.25;8.48;;;18.60;99.90;;;;;;5074812;28;20661;-77
2023/06/26 02:29:15;;;;;;;12.93;8.32;;;18.60;99.90;;;;;;5074468;28;20574;-77
2023/06/26 02:31:41;;;;;;;19.55;8.55;;;18.60;99.90;;;;;;5074659;28;20189;-77
2023/06/26 02:34:07;;;;;;;20.60;8.95;;;18.60;99.90;;;;;;5074576;28;20664;-77
2023/06/26 02:36:33;;;;;;;16.25;8.00;;;18.60;99.90;;;;;;5056397;28;20181;-77
2023/06/26 02:38:58;;;;;;;15.32;9.02;;;18.60;99.90;;;;;;5074597;28;20177;-77
2023/06/26 02:41:24;;;;;;;14.93;8.90;;;18.60;99.90;;;;;;5056229;28;20209;-77
2023/06/26 02:43:50;;;;;;;13.82;9.32;;;18.50;99.90;;;;;;5074600;28;20173;-76
2023/06/26 02:46:15;;;;;;;16.20;8.70;;;18.50;99.90;;;;;;5074825;28;20218;-77
2023/06/26 02:48:41;;;;;;;13.50;8.45;;;18.50;99.90;;;;;;5056570;28;20174;-77
2023/06/26 02:51:08;;;;;;;19.25;10.02;;;18.50;99.90;;;;;;5056642;28;20244;-77
2023/06/26 02:53:33;;;;;;;21.95;8.60;;;18.50;99.90;;;;;;5074581;28;20170;-77
2023/06/26 02:55:59;;;;;;;13.75;9.15;;;18.50;99.90;;;;;;5074764;28;20195;-77
2023/06/26 02:58:25;;;;;;;15.23;8.57;;;18.40;99.90;;;;;;5056758;28;20181;-77
2023/06/26 03:00:51;;;;;;;14.25;8.50;;;18.40;99.90;;;;;;5074864;28;20568;-76
2023/06/26 03:03:17;;;;;;;15.30;8.30;;;18.20;99.90;;;;;;5057395;28;20209;-79
2023/06/26 03:05:43;;;;;;;11.40;7.55;;;18.20;99.90;;;;;;5080017;28;20170;-78
2023/06/26 03:08:09;;;;;;;13.75;7.43;;;18.10;99.90;;;;;;5065246;28;20200;-77
2023/06/26 03:10:35;;;;;;;17.25;7.82;;;18.10;99.90;;;;;;5064936;28;20220;-75
2023/06/26 03:13:00;;;;;;;13.35;8.30;;;18.00;99.90;;;;;;5079756;28;20186;-76
2023/06/26 03:15:26;;;;;;;12.60;8.25;;;18.00;99.90;;;;;;5061502;28;20803;-76
2023/06/26 03:17:52;;;;;;;10.55;7.90;;;17.90;99.90;;;;;;5061497;28;20264;-79
2023/06/26 03:20:18;;;;;;;11.57;7.88;;;17.90;99.90;;;;;;5061271;28;20169;-78
2023/06/26 03:22:43;;;;;;;10.05;8.20;;;18.00;99.90;;;;;;5078963;28;20232;-78
2023/06/26 03:25:09;;;;;;;14.07;7.97;;;18.00;99.90;;;;;;5060762;28;20170;-77
2023/06/26 03:27:35;;;;;;;16.73;7.88;;;18.00;99.90;;;;;;5060547;28;20189;-78
2023/06/26 03:30:01;;;;;;;12.93;8.00;;;18.00;99.90;;;;;;5060372;28;20173;-78
2023/06/26 03:32:27;;;;;;;10.18;7.75;;;18.00;99.90;;;;;;5078124;28;20216;-78
2023/06/26 03:34:52;;;;;;;14.20;7.90;;;18.00;99.90;;;;;;5060067;28;20178;-78
2023/06/26 03:37:18;;;;;;;14.60;7.80;;;18.00;99.90;;;;;;5060766;28;20177;-78
2023/06/26 03:39:44;;;;;;;11.13;7.55;;;17.90;99.90;;;;;;5078394;28;20252;-79
2023/06/26 03:42:10;;;;;;;11.95;7.97;;;17.90;99.90;;;;;;5060112;28;20209;-78
2023/06/26 03:44:36;;;;;;;12.55;8.13;;;17.80;99.90;;;;;;5078758;28;20588;-78
2023/06/26 03:47:01;;;;;;;12.75;8.18;;;17.80;99.90;;;;;;5077842;28;20174;-78
2023/06/26 03:49:28;;;;;;;10.77;8.18;;;17.70;99.90;;;;;;5060932;28;20197;-79
2023/06/26 03:51:55;;;;;;;11.88;7.68;;;17.70;99.90;;;;;;5060763;28;20205;-78
2023/06/26 03:54:21;;;;;;;12.88;8.05;;;17.70;99.90;;;;;;5060526;28;20578;-79
2023/06/26 03:56:47;;;;;;;13.27;8.00;;;17.70;99.90;;;;;;5078008;28;20178;-79
2023/06/26 03:59:12;;;;;;;16.58;7.57;;;17.60;99.90;;;;;;5059689;28;20177;-78
2023/06/26 04:01:38;;;;;;;19.00;9.00;;;17.70;99.90;;;;;;5078480;28;20194;-79
2023/06/26 04:04:04;;;;;;;9.00;7.75;;;17.70;99.90;;;;;;5077759;28;20166;-79
2023/06/26 04:06:33;;;;;;;14.40;7.82;;;17.70;99.90;;;;;;5059906;28;20277;-79
2023/06/26 04:08:58;;;;;;;13.68;8.27;;;17.90;99.90;;;;;;5078321;28;20216;-79
2023/06/26 04:11:25;;;;;;;11.85;7.70;;;18.10;99.90;;;;;;5060594;28;20661;-78
2023/06/26 04:13:51;;;;;;;12.50;7.90;;;18.00;99.90;;;;;;5060023;28;20185;-78
2023/06/26 04:16:17;;;;;;;12.27;7.35;;;18.00;99.90;;;;;;5060649;28;20184;-78
2023/06/26 04:18:42;;;;;;;11.82;8.52;;;18.10;99.90;;;;;;5078759;28;20653;-78
2023/06/26 04:21:11;;;;;;;14.20;8.18;;;18.10;99.90;;;;;;5059113;28;20201;-78
2023/06/26 04:23:38;;;;;;;11.68;8.35;;;18.10;99.90;;;;;;5060025;28;20205;-78
2023/06/26 04:26:04;;;;;;;13.40;7.72;;;18.10;99.90;;;;;;5059815;28;20550;-78
2023/06/26 04:28:35;;;;;;;10.40;7.78;;;18.20;99.90;;;;;;5059340;28;20180;-78
2023/06/26 04:31:04;;;;;;;10.50;7.63;;;18.20;99.90;;;;;;5059255;28;20189;-78
2023/06/26 04:33:30;;;;;;;10.20;7.78;;;18.30;99.90;;;;;;5077000;28;20188;-79
2023/06/26 04:35:55;;;;;;;11.98;7.53;;;18.30;99.90;;;;;;5077578;28;20557;-79
2023/06/26 04:38:21;;;;;;;13.00;7.47;;;18.40;99.90;;;;;;5059709;28;20174;-79
2023/06/26 04:40:48;;;;;;;9.77;6.88;;;18.50;99.90;;;;;;5078024;28;20202;-79
2023/06/26 04:43:14;;;;;;;8.65;7.10;;;18.50;99.90;;;;;;5044461;28;20289;-78
2023/06/26 04:45:40;;;;;;;12.00;7.30;;;18.50;99.90;;;;;;5077359;28;20176;-79
2023/06/26 04:48:06;;;;;;;9.75;7.80;;;18.60;99.90;;;;;;5058943;28;20229;-79
2023/06/26 04:50:33;;;;;;;9.80;7.30;;;18.60;99.90;;;;;;5077502;28;20246;-78
2023/06/26 04:52:59;;;;;;;11.00;7.40;;;18.70;99.90;;;;;;5059355;28;20174;-78
2023/06/26 04:55:25;;;;;;;9.65;7.13;;;18.80;99.90;;;;;;5077131;28;20672;-77
2023/06/26 04:57:51;;;;;;;10.15;7.30;;;19.00;99.90;;;;;;5076547;28;20178;-76
2023/06/26 05:00:17;;;;;;;8.93;6.88;;;19.20;99.90;;;;;;5076089;28;20182;-76
2023/06/26 05:02:43;;;;;;;13.00;7.40;;;19.30;99.90;;;;;;5058106;28;20237;-76
2023/06/26 05:05:10;;;;;;;8.27;6.40;;;19.50;99.90;;;;;;5076052;28;20641;-76
2023/06/26 05:07:36;;;;;;;12.55;8.15;;;19.70;99.90;;;;;;5075773;28;20196;-76
2023/06/26 05:10:02;;;;;;;12.80;7.53;;;19.90;99.90;;;;;;5076241;28;20622;-76
2023/06/26 05:12:28;;;;;;;9.63;7.25;;;20.10;99.90;;;;;;5057400;28;20219;-75
2023/06/26 05:14:53;;;;;;;10.05;6.85;;;20.30;99.90;;;;;;5057382;28;20320;-76
2023/06/26 05:17:19;;;;;;;12.05;6.97;;;20.50;99.90;;;;;;5077680;28;20186;-76
2023/06/26 05:19:45;;;;;;;11.30;7.25;;;20.60;99.90;;;;;;5076484;28;20178;-76
2023/06/26 05:22:16;;;;;;;9.57;7.13;;;20.80;99.90;;;;;;5059182;28;20309;-77
2023/06/26 05:24:46;;;;;;;9.50;6.45;;;20.90;99.90;;;;;;5076725;28;20154;-77
2023/06/26 05:27:19;;;;;;;10.52;6.88;;;21.00;99.90;;;;;;5058096;28;20303;-77
2023/06/26 05:29:45;;;;;;;9.55;6.88;;;21.10;99.90;;;;;;5075403;28;20150;-77
2023/06/26 05:32:12;;;;;;;10.52;6.80;;;21.20;99.90;;;;;;5074545;28;20284;-77
2023/06/26 05:34:39;;;;;;;12.43;7.57;;;21.30;99.90;;;;;;5056802;28;20224;-78
2023/06/26 05:37:06;;;;;;;11.25;7.30;;;21.40;99.90;;;;;;5058147;28;20178;-79
2023/06/26 05:39:32;;;;;;;11.48;6.97;;;21.40;99.90;;;;;;5057858;28;20791;-78
2023/06/26 05:41:58;;;;;;;10.43;7.68;;;21.50;99.90;;;;;;5075242;28;20689;-78
2023/06/26 05:44:24;;;;;;;12.10;7.93;;;21.60;99.90;;;;;;5075952;28;20174;-78
2023/06/26 05:46:50;;;;;;;11.30;7.45;;;21.60;99.90;;;;;;5057429;28;20185;-79
2023/06/26 05:49:16;;;;;;;11.38;7.10;;;21.60;99.90;;;;;;5075036;28;20674;-79
2023/06/26 05:51:42;;;;;;;11.70;7.55;;;21.60;99.90;;;;;;5058417;28;20198;-79
2023/06/26 05:54:08;;;;;;;14.23;7.85;;;21.60;99.90;;;;;;5076658;28;20174;-80
2023/06/26 05:56:35;;;;;;;11.35;7.35;;;21.50;99.90;;;;;;5059606;28;20611;-80
2023/06/26 05:59:02;;;;;;;13.77;8.25;;;21.40;99.90;;;;;;5057747;28;20185;-80
2023/06/26 06:01:28;;;;;;;11.00;8.13;;;21.40;99.90;;;;;;5058297;28;20190;-80
2023/06/26 06:03:53;;;;;;;9.13;7.43;;;21.30;99.90;;;;;;5076645;28;20668;-80
2023/06/26 06:06:19;;;;;;;13.05;8.57;;;21.30;99.90;;;;;;5060826;28;20535;-80
2023/06/26 06:08:45;;;;;;;13.73;8.38;;;21.40;99.90;;;;;;5079012;28;20174;-80
2023/06/26 06:11:10;;;;;;;12.52;8.38;;;21.40;99.90;;;;;;5059969;28;20197;-80
2023/06/26 06:13:36;;;;;;;12.10;8.73;;;21.50;99.90;;;;;;5061723;28;20664;-80
2023/06/26 06:16:02;;;;;;;13.10;9.05;;;21.50;99.90;;;;;;5079522;28;20173;-79
2023/06/26 06:18:28;;;;;;;11.55;8.88;;;21.60;99.90;;;;;;5061136;28;20249;-80
2023/06/26 06:20:54;;;;;;;10.32;7.82;;;21.70;99.90;;;;;;5059449;28;20194;-80
2023/06/26 06:23:19;;;;;;;15.70;8.57;;;21.90;99.90;;;;;;5079035;28;20213;-80
2023/06/26 06:25:45;;;;;;;13.93;8.07;;;22.00;99.90;;;;;;5062059;28;20181;-80
2023/06/26 06:28:11;;;;;;;13.07;8.35;;;22.10;99.90;;;;;;5061961;28;20178;-80
2023/06/26 06:30:37;;;;;;;15.77;9.57;;;22.00;99.90;;;;;;5060761;28;20238;-80
2023/06/26 06:33:02;;;;;;;12.18;8.50;;;22.00;99.90;;;;;;5062405;28;20185;-79
2023/06/26 06:35:28;;;;;;;12.52;8.43;;;21.90;99.90;;;;;;5064273;28;20181;-78
2023/06/26 06:37:54;;;;;;;12.73;8.32;;;21.90;99.90;;;;;;5062542;28;20178;-79
2023/06/26 06:40:22;;;;;;;13.07;8.07;;;21.80;99.90;;;;;;5081408;28;20209;-80
2023/06/26 06:42:48;;;;;;;12.80;7.10;;;21.70;99.90;;;;;;5080969;28;20243;-79
2023/06/26 06:45:13;;;;;;;11.75;8.02;;;21.60;99.90;;;;;;5080817;28;20245;-79
2023/06/26 06:47:39;;;;;;;14.82;8.95;;;21.60;99.90;;;;;;5080637;28;20174;-79
2023/06/26 06:50:09;;;;;;;11.50;7.43;;;21.50;99.90;;;;;;5081362;28;20169;-79
2023/06/26 06:52:40;;;;;;;12.85;8.25;;;21.50;99.90;;;;;;5064788;28;20181;-79
2023/06/26 06:55:08;;;;;;;11.43;7.30;;;21.50;99.90;;;;;;5082225;28;20181;-79
2023/06/26 06:57:38;;;;;;;11.95;7.57;;;21.60;99.90;;;;;;5064560;28;20174;-79
2023/06/26 07:00:09;;;;;;;12.55;7.70;;;21.60;99.90;;;;;;5065813;28;20214;-80
2023/06/26 07:02:36;;;;;;;12.35;7.30;;;21.60;99.90;;;;;;5088143;28;20261;-80
2023/06/26 07:05:03;;;;;;;10.65;7.60;;;21.40;99.90;;;;;;5060592;28;20642;-80
2023/06/26 07:07:31;;;;;;;11.10;7.05;;;21.30;99.90;;;;;;5058710;28;20181;-80
2023/06/26 07:10:02;;;;;;;13.02;7.28;;;21.20;99.90;;;;;;5059909;28;20245;-80
2023/06/26 07:12:28;;;;;;;9.70;6.95;;;21.20;99.90;;;;;;5078401;28;20196;-80
2023/06/26 07:14:56;;;;;;;11.48;6.38;;;21.30;99.90;;;;;;5080066;28;20212;-80
2023/06/26 07:17:21;;;;;;;11.45;7.07;;;21.50;99.90;;;;;;5077002;28;20227;-79
2023/06/26 07:19:48;;;;;;;14.15;7.07;;;21.50;99.90;;;;;;5076749;28;20545;-80
2023/06/26 07:22:14;;;;;;;10.70;6.60;;;21.60;99.90;;;;;;5058270;28;20307;-80
2023/06/26 07:24:40;;;;;;;14.90;6.78;;;21.60;99.90;;;;;;5076812;28;20185;-79
2023/06/26 07:27:05;;;;;;;10.00;6.70;;;21.60;99.90;;;;;;5059045;28;20182;-79
2023/06/26 07:29:31;;;;;;;12.65;7.45;;;21.60;99.90;;;;;;5057645;28;20243;-80
2023/06/26 07:31:57;;;;;;;13.07;6.95;;;21.80;99.90;;;;;;5076747;28;20201;-80
2023/06/26 07:34:23;;;;;;;12.38;6.82;;;21.80;99.90;;;;;;5058484;28;20185;-79
2023/06/26 07:36:48;;;;;;;9.15;6.70;;;22.00;99.90;;;;;;5057940;28;20186;-80
2023/06/26 07:39:14;;;;;;;12.90;6.82;;;22.10;99.90;;;;;;5058276;28;20189;-80
2023/06/26 07:41:40;;;;;;;12.75;7.13;;;22.30;99.90;;;;;;5058031;28;20243;-81
2023/06/26 07:44:06;;;;;;;11.27;7.75;;;22.30;99.90;;;;;;5060127;28;20232;-81
2023/06/26 07:46:31;;;;;;;13.52;7.80;;;22.20;99.90;;;;;;5076033;28;20177;-82
2023/06/26 07:48:57;;;;;;;16.02;8.45;;;22.20;99.90;;;;;;5058329;28;20658;-81
2023/06/26 07:51:23;;;;;;;10.35;7.75;;;22.20;99.90;;;;;;5058229;28;20255;-81
2023/06/26 07:53:49;;;;;;;12.82;7.18;;;22.10;99.90;;;;;;5076937;28;20170;-82
2023/06/26 07:56:15;;;;;;;13.70;7.82;;;22.10;99.90;;;;;;5062404;28;20188;-81
2023/06/26 07:58:41;;;;;;;13.63;7.63;;;22.00;99.90;;;;;;5082072;28;20269;-81
2023/06/26 08:01:06;;;;;;;15.20;7.38;;;22.00;99.90;;;;;;5065199;28;20208;-81
2023/06/26 08:03:32;;;;;;;14.20;6.93;;;21.90;99.90;;;;;;5081711;28;20197;-81
2023/06/26 08:05:58;;;;;;;13.93;7.00;;;22.00;99.90;;;;;;5081799;28;20172;-80
2023/06/26 08:08:24;;;;;;;12.98;7.05;;;22.00;99.90;;;;;;5062872;28;20173;-80
2023/06/26 08:10:49;;;;;;;16.00;7.50;;;22.20;99.90;;;;;;5062489;28;20194;-81
2023/06/26 08:13:15;;;;;;;15.32;7.50;;;22.30;99.90;;;;;;5062809;28;20186;-81
2023/06/26 08:15:41;;;;;;;12.18;8.18;;;22.30;99.90;;;;;;5081246;28;20711;-81
2023/06/26 08:18:07;;;;;;;16.63;7.25;;;22.40;99.90;;;;;;5080299;28;20252;-81
2023/06/26 08:20:32;;;;;;;14.43;6.70;;;22.40;99.90;;;;;;5080347;28;20220;-81
2023/06/26 08:22:58;;;;;;;14.77;6.85;;;22.50;99.90;;;;;;5062888;28;20254;-80
2023/06/26 08:25:24;;;;;;;16.55;7.30;;;22.50;99.90;;;;;;5063278;28;20173;-81
2023/06/26 08:27:52;;;;;;;13.50;7.38;;;22.50;99.90;;;;;;5063364;28;20182;-81
2023/06/26 08:30:18;;;;;;;15.00;7.53;;;22.50;99.90;;;;;;5063830;28;20178;-81
2023/06/26 08:32:43;;;;;;;13.65;8.45;;;22.60;99.90;;;;;;5063748;28;20552;-82
2023/06/26 08:35:10;;;;;;;11.23;8.10;;;22.70;99.90;;;;;;5061967;28;20591;-78
2023/06/26 08:37:35;;;;;;;12.10;8.30;;;22.80;91.10;;;;;;5065925;28;20184;-80
2023/06/26 08:40:02;;;;;;;16.10;8.23;;;23.00;99.90;;;;;;5063485;28;20177;-80
2023/06/26 08:42:28;;;;;;;15.65;8.90;;;23.10;31.30;;;;;;5080615;28;20285;-82
2023/06/26 08:44:54;;;;;;;14.93;8.90;;;22.90;30.70;;;;;;5063781;28;20173;-81
2023/06/26 08:47:19;;;;;;;13.70;8.10;;;22.80;69.80;;;;;;5062722;28;20212;-81
2023/06/26 08:50:04;;;;;;;15.55;9.60;;;22.80;99.90;;;;;;5080016;28;20173;-77
2023/06/26 08:52:35;;;;;;;17.23;10.07;;;22.70;90.50;;;;;;5061980;28;20193;-80
2023/06/26 08:55:06;;;;;;;16.45;10.80;;;22.80;99.90;;;;;;5062728;28;20176;-80
2023/06/26 08:57:32;;;;;;;15.57;9.43;;;22.90;36.90;;;;;;5079663;28;20162;-81
2023/06/26 09:00:02;;;;;;;16.65;10.85;;;22.90;99.90;;;;;;5080283;28;20178;-79
2023/06/26 09:02:28;;;;;;;17.15;10.93;;;23.00;99.90;;;;;;5060422;28;20213;-82
2023/06/26 09:04:54;;;;;;;14.25;10.38;;;23.00;57.20;;;;;;5077791;28;20177;-81
2023/06/26 09:07:20;;;;;;;22.67;12.95;;;23.10;49.70;;;;;;5076501;28;20224;-81
2023/06/26 09:09:46;;;;;;;17.88;11.55;;;23.10;96.60;;;;;;5076599;28;20200;-82
2023/06/26 09:12:13;;;;;;;18.02;11.52;;;23.20;94.20;;;;;;5060771;28;20205;-81
2023/06/26 09:14:39;;;;;;;15.65;11.02;;;23.00;85.50;;;;;;5058666;28;20284;-77
2023/06/26 09:17:05;;;;;;;16.65;10.15;;;22.70;99.90;;;;;;5058896;28;20601;-80
2023/06/26 09:19:31;;;;;;;18.98;11.60;;;22.60;99.90;;;;;;5060782;28;20188;-82
2023/06/26 09:21:57;;;;;;;19.85;10.07;;;22.70;99.90;;;;;;5080488;28;20209;-80
2023/06/26 09:24:23;;;;;;;18.48;10.98;;;22.90;99.90;;;;;;5077443;28;20193;-81
2023/06/26 09:26:50;;;;;;;16.42;10.07;;;23.10;45.90;;;;;;5077862;28;20700;-82
2023/06/26 09:29:17;;;;;;;17.05;11.32;;;23.20;34.30;;;;;;5061509;28;20580;-83
2023/06/26 09:31:44;;;;;;;18.50;11.70;;;23.30;19.30;;;;;;5078417;28;20186;-77
2023/06/26 09:34:10;;;;;;;19.25;9.70;;;23.20;1.00;;;;;;5059469;28;20174;-80
2023/06/26 09:36:36;;;;;;;13.95;8.98;;;23.10;49.00;;;;;;5059380;28;20594;-80
2023/06/26 09:39:04;;;;;;;15.90;9.15;;;23.00;86.50;;;;;;5077716;28;20511;-81
2023/06/26 09:41:30;;;;;;;17.25;9.00;;;22.90;99.90;;;;;;5077363;28;20557;-80
2023/06/26 09:44:05;;;;;;;16.02;10.18;;;22.90;99.90;;;;;;5060810;28;20228;-83
2023/06/26 09:46:31;;;;;;;16.60;10.15;;;22.80;99.90;;;;;;5077472;28;20617;-84
2023/06/26 09:49:08;;;;;;;22.05;10.73;;;23.00;99.90;;;;;;5077285;28;20243;-83
2023/06/26 09:51:35;;;;;;;17.30;10.20;;;23.40;99.90;;;;;;5076349;28;20661;-83
2023/06/26 09:54:02;;;;;;;11.55;9.32;;;23.70;52.70;;;;;;5076341;28;20212;-81
2023/06/26 09:56:29;;;;;;;14.48;9.48;;;23.90;1.00;;;;;;5057952;28;20197;-81
2023/06/26 09:59:00;;;;;;;15.20;9.77;;;24.20;1.00;;;;;;5076111;28;20669;-81
2023/06/26 10:01:27;;;;;;;19.92;9.82;;;24.20;1.00;;;;;;5075593;28;20198;-81
2023/06/26 10:03:54;;;;;;;15.07;8.90;;;24.00;1.00;;;;;;5076324;28;20197;-83
2023/06/26 10:06:26;;;;;;;16.02;9.10;;;23.70;1.00;;;;;;5058453;28;20177;-83
2023/06/26 10:08:53;;;;;;;18.33;9.18;;;23.90;1.00;;;;;;5059407;28;20528;-84
2023/06/26 10:11:22;;;;;;;16.27;8.93;;;24.20;1.00;;;;;;5059116;28;20190;-83
2023/06/26 10:13:50;;;;;;;14.35;8.68;;;24.40;1.00;;;;;;5059264;28;20606;-82
2023/06/26 10:16:26;;;;;;;14.65;8.85;;;24.70;1.00;;;;;;5058840;28;20199;-85
2023/06/26 10:19:02;;;;;;;16.27;8.57;;;24.70;99.90;;;;;;5058562;28;20191;-81
2023/06/26 10:21:31;;;;;;;14.35;8.88;;;24.80;81.50;;;;;;5079952;28;20185;-77
2023/06/26 10:23:57;;;;;;;13.32;8.50;;;24.60;1.00;;;;;;5059403;28;20205;-80
2023/06/26 10:26:26;;;;;;;14.65;8.60;;;24.10;99.90;;;;;;5058680;28;20177;-76
2023/06/26 10:28:54;;;;;;;14.75;8.80;;;23.60;99.90;;;;;;5076273;28;20242;-78
2023/06/26 10:31:23;;;;;;;18.95;9.07;;;23.30;1.00;;;;;;5076193;28;20189;-80
2023/06/26 10:33:49;;;;;;;16.30;8.98;;;23.20;1.00;;;;;;5057104;28;20174;-76
2023/06/26 10:36:21;;;;;;;11.02;8.02;;;23.10;1.00;;;;;;5074547;28;20178;-78
2023/06/26 10:39:20;;;;;;;13.13;7.15;;;23.00;1.00;;;;;;5039959;28;20695;-77
2023/06/26 10:41:46;;;;;;;13.75;7.35;;;23.00;1.00;;;;;;5061189;28;20292;-76
2023/06/26 10:44:16;;;;;;;14.73;6.70;;;23.00;1.00;;;;;;5074124;28;20622;-74
2023/06/26 10:46:53;;;;;;;14.75;7.18;;;22.80;99.90;;;;;;5056703;28;20649;-77
2023/06/26 10:49:20;;;;;;;12.98;6.80;;;22.70;99.90;;;;;;5074451;28;20183;-78
2023/06/26 10:51:51;;;;;;;14.65;6.40;;;22.70;1.00;;;;;;5056076;28;20308;-77
2023/06/26 10:54:18;;;;;;;11.93;6.05;;;22.80;99.90;;;;;;5056476;28;20185;-76
2023/06/26 10:56:47;;;;;;;11.82;6.88;;;23.00;1.00;;;;;;5055936;28;20185;-77
2023/06/26 10:59:20;;;;;;;12.40;6.00;;;23.30;1.00;;;;;;5056383;28;20173;-77
2023/06/26 11:02:04;;;;;;;11.02;5.93;;;23.70;99.90;;;;;;5074433;28;20216;-79
2023/06/26 11:04:44;;;;;;;10.68;4.93;;;24.10;55.30;;;;;;5057183;28;20176;-79
2023/06/26 11:07:23;;;;;;;9.85;6.28;;;24.10;1.00;;;;;;5074695;28;20157;-78
2023/06/26 11:09:56;;;;;;;8.15;5.53;;;23.90;1.00;;;;;;5075313;28;20174;-78
2023/06/26 11:12:41;;;;;;;10.77;5.57;;;23.70;1.00;;;;;;5077023;28;20193;-80
2023/06/26 11:15:15;;;;;;;13.20;6.53;;;23.70;1.00;;;;;;5077139;28;20193;-78
2023/06/26 11:17:45;;;;;;;11.93;6.60;;;23.90;1.00;;;;;;5075812;28;20174;-80
2023/06/26 11:20:12;;;;;;;11.43;5.30;;;24.00;99.90;;;;;;5076081;28;20174;-80
2023/06/26 11:22:40;;;;;;;12.65;5.55;;;24.40;99.90;;;;;;5076227;28;20208;-80
2023/06/26 11:25:07;;;;;;;11.63;4.82;;;24.50;99.90;;;;;;5058432;28;20182;-79
2023/06/26 11:27:40;;;;;;;12.30;4.30;;;24.70;99.90;;;;;;5075676;28;20256;-80
2023/06/26 11:30:08;;;;;;;7.75;4.43;;;24.80;99.90;;;;;;5075800;28;20182;-80
2023/06/26 11:32:34;;;;;;;10.07;4.30;;;24.70;99.90;;;;;;5078365;28;20197;-79
2023/06/26 11:35:00;;;;;;;8.60;4.20;;;24.50;99.90;;;;;;5061539;28;20203;-81
2023/06/26 11:37:26;;;;;;;10.40;4.85;;;24.20;99.90;;;;;;5079262;28;20177;-80
2023/06/26 11:39:52;;;;;;;8.82;4.63;;;24.30;99.90;;;;;;5079159;28;20223;-80
2023/06/26 11:42:20;;;;;;;13.30;4.50;;;24.40;99.90;;;;;;5061283;28;20289;-79
2023/06/26 11:44:46;;;;;;;8.25;4.78;;;24.50;99.90;;;;;;5079053;28;20205;-79
2023/06/26 11:47:15;;;;;;;9.75;4.13;;;24.60;99.90;;;;;;5061737;28;20178;-79
2023/06/26 11:49:48;;;;;;;16.00;4.65;;;24.90;1.00;;;;;;5079322;28;20251;-79
2023/06/26 11:52:15;;;;;;;13.38;4.82;;;25.10;99.90;;;;;;5079342;28;20194;-80
2023/06/26 11:54:42;;;;;;;10.80;4.32;;;25.20;99.90;;;;;;5079200;28;20181;-81
2023/06/26 11:57:08;;;;;;;11.48;3.75;;;24.90;99.90;;;;;;5061455;28;20212;-81
2023/06/26 11:59:39;;;;;;;15.10;4.57;;;24.60;99.90;;;;;;5078836;28;20256;-80
2023/06/26 12:02:14;;;;;;;11.30;4.22;;;24.30;99.90;;;;;;5078636;28;20201;-78
2023/06/26 12:04:44;;;;;;;11.43;4.70;;;23.90;1.00;;;;;;5077860;28;20211;-78
2023/06/26 12:07:11;;;;;;;10.27;4.80;;;23.40;1.00;;;;;;5060014;28;20566;-80
2023/06/26 12:09:45;;;;;;;12.05;5.03;;;23.10;1.00;;;;;;5077687;28;20638;-80
2023/06/26 12:12:13;;;;;;;11.20;4.43;;;23.10;99.90;;;;;;5060435;28;20206;-79
2023/06/26 12:14:40;;;;;;;8.73;4.35;;;23.00;1.00;;;;;;5060932;28;20684;-80
2023/06/26 12:17:14;;;;;;;9.70;4.05;;;23.10;99.90;;;;;;5078183;28;20174;-82
2023/06/26 12:19:44;;;;;;;8.32;4.40;;;23.20;99.90;;;;;;5060603;28;20595;-82
2023/06/26 12:22:11;;;;;;;5.80;3.50;;;23.20;99.90;;;;;;5060331;28;20704;-81
2023/06/26 12:24:42;;;;;;;10.27;4.32;;;23.50;1.00;;;;;;5077707;28;20192;-78
2023/06/26 12:27:10;;;;;;;7.35;3.47;;;23.80;1.00;;;;;;5059037;28;20170;-79
2023/06/26 12:29:36;;;;;;;5.75;4.10;;;23.80;1.00;;;;;;5059458;28;20650;-81
2023/06/26 12:32:02;;;;;;;6.28;3.15;;;23.60;1.00;;;;;;5077250;28;20229;-79
2023/06/26 12:34:33;;;;;;;9.40;3.33;;;23.40;1.00;;;;;;5076411;28;20254;-78
2023/06/26 12:37:04;;;;;;;7.10;3.17;;;23.30;99.90;;;;;;5077947;28;20527;-80
2023/06/26 12:39:46;;;;;;;7.13;3.08;;;23.50;99.90;;;;;;5059255;28;20188;-80